createdAt,value
2019-05-13T00:00:58.217Z,13.85
2019-05-13T00:03:27.335Z,16.30
2019-05-13T00:05:56.143Z,16.45
2019-05-13T00:08:25.162Z,15.85
2019-05-13T00:10:54.414Z,15.60
2019-05-13T00:13:23.793Z,16.67
2019-05-13T00:15:54.384Z,14.93
2019-05-13T00:18:23.688Z,15.72
2019-05-13T00:20:54.219Z,13.55
2019-05-13T00:23:23.449Z,13.38
2019-05-13T00:25:54.566Z,16.40
2019-05-13T00:28:23.572Z,13.22
2019-05-13T00:30:54.272Z,12.30
2019-05-13T00:33:24.381Z,13.08
2019-05-13T00:35:53.545Z,12.93
2019-05-13T00:38:24.391Z,13.03
2019-05-13T00:40:54.527Z,12.88
2019-05-13T00:43:24.522Z,9.95
2019-05-13T00:45:53.646Z,11.57
2019-05-13T00:48:23.329Z,13.03
2019-05-13T00:50:54.417Z,9.85
2019-05-13T00:53:23.711Z,9.63
2019-05-13T00:55:53.605Z,9.13
2019-05-13T00:58:24.231Z,11.15
2019-05-13T01:00:54.681Z,12.28
2019-05-13T01:03:26.307Z,14.38
2019-05-13T01:05:54.531Z,13.95
2019-05-13T01:08:23.831Z,13.90
2019-05-13T01:10:53.673Z,12.53
2019-05-13T01:13:23.797Z,13.30
2019-05-13T01:15:54.425Z,12.45
2019-05-13T01:18:23.524Z,13.45
2019-05-13T01:20:53.810Z,12.82
2019-05-13T01:23:24.064Z,9.48
2019-05-13T01:25:54.412Z,9.33
2019-05-13T01:28:24.039Z,10.97
2019-05-13T01:30:53.960Z,6.55
2019-05-13T01:33:23.587Z,5.30
2019-05-13T01:35:53.794Z,6.43
2019-05-13T01:38:24.035Z,6.45
2019-05-13T01:40:53.912Z,3.83
2019-05-13T01:43:24.491Z,4.67
2019-05-13T01:45:53.817Z,5.85
2019-05-13T01:48:24.031Z,4.55
2019-05-13T01:50:53.464Z,4.17
2019-05-13T01:53:24.419Z,6.28
2019-05-13T01:55:53.320Z,3.17
2019-05-13T01:58:23.561Z,5.30
2019-05-13T02:00:54.916Z,4.13
2019-05-13T02:03:24.552Z,4.53
2019-05-13T02:05:54.428Z,2.62
2019-05-13T02:08:24.587Z,4.87
2019-05-13T02:10:55.164Z,4.72
2019-05-13T02:13:24.974Z,2.70
2019-05-13T02:15:56.059Z,4.30
2019-05-13T02:18:25.085Z,5.07
2019-05-13T02:20:55.466Z,4.25
2019-05-13T02:23:25.204Z,6.28
2019-05-13T02:25:54.692Z,4.58
2019-05-13T02:28:24.776Z,5.42
2019-05-13T02:30:55.999Z,3.58
2019-05-13T02:33:24.923Z,4.97
2019-05-13T02:35:54.115Z,4.47
2019-05-13T02:38:28.840Z,4.42
2019-05-13T02:40:53.990Z,4.83
2019-05-13T02:43:23.818Z,5.17
2019-05-13T02:45:54.037Z,3.67
2019-05-13T02:48:24.036Z,6.47
2019-05-13T02:50:54.090Z,4.60
2019-05-13T02:53:24.181Z,4.03
2019-05-13T02:55:53.470Z,3.02
2019-05-13T02:58:24.493Z,2.80
2019-05-13T03:00:53.897Z,5.35
2019-05-13T03:03:23.848Z,4.17
2019-05-13T03:05:53.641Z,5.22
2019-05-13T03:08:39.092Z,5.17
2019-05-13T03:10:54.206Z,5.97
2019-05-13T03:13:24.111Z,4.50
2019-05-13T03:16:13.426Z,6.17
2019-05-13T03:18:43.967Z,4.57
2019-05-13T03:21:13.427Z,5.53
2019-05-13T03:23:43.944Z,3.97
2019-05-13T03:26:13.453Z,5.33
2019-05-13T03:28:43.908Z,5.40
2019-05-13T03:31:16.812Z,6.95
2019-05-13T03:33:46.331Z,7.08
2019-05-13T03:36:17.249Z,5.45
2019-05-13T03:39:01.442Z,5.62
2019-05-13T03:41:18.125Z,4.60
2019-05-13T03:43:47.466Z,4.90
2019-05-13T03:46:22.442Z,6.42
2019-05-13T03:48:53.227Z,5.95
2019-05-13T03:51:22.999Z,6.95
2019-05-13T03:53:53.400Z,7.40
2019-05-13T03:56:23.908Z,5.35
2019-05-13T03:58:53.804Z,4.58
2019-05-13T04:01:22.943Z,3.08
2019-05-13T04:03:52.899Z,5.30
2019-05-13T04:06:23.261Z,8.30
2019-05-13T04:08:54.032Z,6.33
2019-05-13T04:11:23.414Z,4.87
2019-05-13T04:13:53.029Z,3.98
2019-05-13T04:16:23.680Z,5.60
2019-05-13T04:18:53.880Z,4.83
2019-05-13T04:21:23.329Z,5.63
2019-05-13T04:23:53.184Z,4.62
2019-05-13T04:26:23.592Z,4.12
2019-05-13T04:28:53.106Z,4.53
2019-05-13T04:31:22.979Z,7.07
2019-05-13T04:33:53.262Z,5.17
2019-05-13T04:36:23.789Z,8.30
2019-05-13T04:38:53.272Z,4.95
2019-05-13T04:41:23.197Z,4.17
2019-05-13T04:43:54.148Z,6.20
2019-05-13T04:46:23.372Z,5.47
2019-05-13T04:48:53.211Z,6.37
2019-05-13T04:51:22.915Z,6.10
2019-05-13T04:53:55.983Z,3.60
2019-05-13T04:56:22.662Z,6.28
2019-05-13T04:58:52.758Z,5.33
2019-05-13T05:04:28.711Z,4.90
2019-05-13T05:06:59.543Z,5.92
2019-05-13T05:10:30.487Z,4.40
2019-05-13T05:13:26.420Z,5.62
2019-05-13T05:16:36.295Z,5.60
2019-05-13T05:19:46.681Z,4.10
2019-05-13T05:22:42.651Z,6.28
2019-05-13T05:25:41.643Z,4.92
2019-05-13T05:28:41.981Z,6.30
2019-05-13T05:31:58.275Z,6.10
2019-05-13T05:34:43.391Z,6.40
2019-05-13T05:38:12.288Z,5.10
2019-05-13T05:40:44.113Z,4.75
2019-05-13T05:43:14.462Z,6.17
2019-05-13T05:45:43.406Z,6.33
2019-05-13T05:48:16.271Z,7.00
2019-05-13T05:50:47.371Z,7.85
2019-05-13T05:53:17.925Z,5.50
2019-05-13T05:55:51.777Z,8.08
2019-05-13T05:58:22.861Z,5.47
2019-05-13T06:00:55.828Z,6.95
2019-05-13T06:03:27.044Z,7.90
2019-05-13T06:05:56.114Z,7.33
2019-05-13T06:08:25.058Z,4.75
2019-05-13T06:10:54.053Z,6.93
2019-05-13T06:13:23.015Z,6.75
2019-05-13T06:15:51.922Z,6.10
2019-05-13T06:18:22.216Z,7.62
2019-05-13T06:20:51.389Z,5.45
2019-05-13T06:23:22.163Z,8.60
2019-05-13T06:25:52.629Z,7.15
2019-05-13T06:28:21.935Z,5.35
2019-05-13T06:30:52.020Z,7.40
2019-05-13T06:33:21.351Z,4.67
2019-05-13T06:35:52.131Z,7.03
2019-05-13T06:38:22.545Z,6.65
2019-05-13T06:41:00.518Z,6.42
2019-05-13T06:43:22.484Z,5.90
2019-05-13T06:45:51.509Z,8.00
2019-05-13T06:48:22.940Z,4.63
2019-05-13T06:50:52.098Z,6.12
2019-05-13T06:53:21.766Z,4.73
2019-05-13T06:55:52.323Z,3.67
2019-05-13T06:58:22.263Z,6.55
2019-05-13T07:00:51.752Z,6.00
2019-05-13T07:03:21.999Z,7.15
2019-05-13T07:05:52.430Z,4.47
2019-05-13T07:08:22.244Z,4.40
2019-05-13T07:10:51.610Z,6.42
2019-05-13T07:13:21.814Z,7.12
2019-05-13T07:15:52.148Z,4.55
2019-05-13T07:18:21.889Z,4.97
2019-05-13T07:20:53.097Z,4.33
2019-05-13T07:23:22.495Z,5.78
2019-05-13T07:25:52.519Z,4.17
2019-05-13T07:28:21.986Z,4.53
2019-05-13T07:30:51.596Z,4.12
2019-05-13T07:33:21.379Z,5.83
2019-05-13T07:35:56.816Z,5.22
2019-05-13T07:38:22.401Z,5.72
2019-05-13T07:40:57.228Z,3.50
2019-05-13T07:43:26.022Z,4.17
2019-05-13T07:45:54.815Z,3.98
2019-05-13T07:48:27.448Z,4.10
2019-05-13T07:51:00.205Z,4.40
2019-05-13T07:53:25.227Z,4.08
2019-05-13T07:55:54.110Z,6.35
2019-05-13T07:58:23.611Z,5.97
2019-05-13T08:00:52.484Z,5.55
2019-05-13T08:03:21.576Z,8.13
2019-05-13T08:05:51.338Z,6.75
2019-05-13T08:08:22.049Z,6.45
2019-05-13T08:10:51.948Z,6.58
2019-05-13T08:13:22.540Z,5.28
2019-05-13T08:15:54.315Z,4.03
2019-05-13T08:18:22.326Z,5.37
2019-05-13T08:20:52.440Z,3.67
2019-05-13T08:23:21.730Z,4.78
2019-05-13T08:25:51.524Z,4.62
2019-05-13T08:28:22.577Z,4.50
2019-05-13T08:30:51.827Z,3.83
2019-05-13T08:33:22.688Z,7.37
2019-05-13T08:35:54.125Z,3.70
2019-05-13T08:38:23.078Z,6.90
2019-05-13T08:40:55.058Z,5.05
2019-05-13T08:43:24.053Z,4.42
2019-05-13T08:45:55.633Z,6.05
2019-05-13T08:48:23.425Z,3.10
2019-05-13T08:50:52.366Z,4.67
2019-05-13T08:53:21.333Z,3.92
2019-05-13T08:55:51.770Z,4.22
2019-05-13T08:58:21.654Z,6.92
2019-05-13T09:00:58.801Z,4.80
2019-05-13T09:03:26.203Z,2.72
2019-05-13T09:05:55.299Z,3.70
2019-05-13T09:08:25.506Z,4.45
2019-05-13T09:10:57.014Z,4.47
2019-05-13T09:13:25.398Z,6.45
2019-05-13T09:15:54.336Z,6.42
2019-05-13T09:18:23.178Z,4.05
2019-05-13T09:20:52.492Z,4.30
2019-05-13T09:23:22.333Z,6.30
2019-05-13T09:25:52.358Z,6.37
2019-05-13T09:28:22.126Z,4.53
2019-05-13T09:30:53.186Z,6.42
2019-05-13T09:33:22.137Z,4.50
2019-05-13T09:35:53.581Z,5.90
2019-05-13T09:38:22.900Z,6.12
2019-05-13T09:40:53.094Z,5.78
2019-05-13T09:43:22.445Z,4.20
2019-05-13T09:45:52.247Z,5.30
2019-05-13T09:48:22.443Z,5.30
2019-05-13T09:50:52.065Z,4.00
2019-05-13T09:53:22.220Z,4.08
2019-05-13T09:55:52.322Z,6.08
2019-05-13T09:58:22.350Z,3.75
2019-05-13T10:00:52.503Z,4.08
2019-05-13T10:03:25.310Z,4.25
2019-05-13T10:05:52.834Z,4.60
2019-05-13T10:08:22.208Z,4.05
2019-05-13T10:10:52.744Z,4.28
2019-05-13T10:13:23.185Z,3.20
2019-05-13T10:15:52.576Z,5.12
2019-05-13T10:18:22.032Z,4.53
2019-05-13T10:20:58.200Z,3.35
2019-05-13T10:23:26.845Z,4.05
2019-05-13T10:25:59.194Z,3.60
2019-05-13T10:28:28.734Z,5.05
2019-05-13T10:30:57.631Z,5.53
2019-05-13T10:33:27.334Z,4.97
2019-05-13T10:35:56.269Z,2.52
2019-05-13T10:38:27.805Z,4.55
2019-05-13T10:40:56.088Z,6.40
2019-05-13T10:43:31.440Z,4.55
2019-05-13T10:45:55.683Z,5.17
2019-05-13T10:48:24.852Z,4.58
2019-05-13T10:50:53.706Z,4.75
2019-05-13T10:53:22.535Z,5.87
2019-05-13T10:55:52.255Z,2.75
2019-05-13T10:58:23.445Z,4.75
2019-05-13T11:00:53.948Z,3.98
2019-05-13T11:03:23.314Z,5.83
2019-05-13T11:05:52.960Z,4.35
2019-05-13T11:08:22.628Z,6.95
2019-05-13T11:10:53.080Z,3.67
2019-05-13T11:13:23.176Z,4.20
2019-05-13T11:15:57.884Z,4.47
2019-05-13T11:18:24.464Z,4.12
2019-05-13T11:20:53.641Z,4.00
2019-05-13T11:23:23.255Z,4.22
2019-05-13T11:25:52.659Z,4.62
2019-05-13T11:28:21.466Z,4.58
2019-05-13T11:30:51.959Z,4.58
2019-05-13T11:33:22.278Z,3.87
2019-05-13T11:35:52.289Z,5.10
2019-05-13T11:38:22.329Z,5.65
2019-05-13T11:40:52.385Z,3.92
2019-05-13T11:43:24.878Z,3.85
2019-05-13T11:45:52.234Z,4.83
2019-05-13T11:48:23.442Z,2.92
2019-05-13T11:50:54.029Z,5.65
2019-05-13T11:53:38.491Z,3.95
2019-05-13T11:55:53.183Z,5.60
2019-05-13T11:58:21.976Z,5.42
2019-05-13T12:00:53.974Z,5.08
2019-05-13T12:03:23.445Z,3.37
2019-05-13T12:05:53.909Z,4.77
2019-05-13T12:08:23.547Z,4.30
2019-05-13T12:10:52.747Z,3.33
2019-05-13T12:13:23.226Z,4.75
2019-05-13T12:15:54.493Z,5.22
2019-05-13T12:18:23.828Z,4.13
2019-05-13T12:20:53.977Z,3.85
2019-05-13T12:23:23.328Z,4.83
2019-05-13T12:25:53.091Z,2.37
2019-05-13T12:28:22.189Z,5.37
2019-05-13T12:30:53.008Z,4.83
2019-05-13T12:33:22.846Z,4.83
2019-05-13T12:38:22.970Z,3.87
2019-05-13T12:40:53.115Z,4.28
2019-05-13T12:43:23.870Z,4.83
2019-05-13T12:45:53.464Z,4.35
2019-05-13T12:48:23.132Z,4.10
2019-05-13T12:50:53.910Z,5.25
2019-05-13T12:53:22.740Z,3.80
2019-05-13T12:55:56.139Z,3.80
2019-05-13T12:58:23.609Z,8.68
2019-05-13T13:00:54.774Z,4.75
2019-05-13T13:03:24.186Z,3.17
2019-05-13T13:05:53.450Z,3.45
2019-05-13T13:08:38.225Z,4.57
2019-05-13T13:10:53.602Z,5.08
2019-05-13T13:13:32.839Z,5.05
2019-05-13T13:15:53.920Z,9.18
2019-05-13T13:18:23.129Z,5.50
2019-05-13T13:21:00.302Z,6.03
2019-05-13T13:25:57.026Z,6.35
2019-05-13T13:28:24.372Z,3.75
2019-05-13T13:30:53.409Z,3.75
2019-05-13T13:33:22.632Z,6.03
2019-05-13T13:35:59.664Z,6.20
2019-05-13T13:40:54.050Z,5.25
2019-05-13T13:43:24.889Z,3.70
2019-05-13T13:46:25.338Z,6.65
2019-05-13T13:48:25.941Z,5.10
2019-05-13T13:50:56.234Z,4.10
2019-05-13T13:53:26.204Z,5.35
2019-05-13T13:55:56.164Z,4.50
2019-05-13T13:58:25.814Z,3.40
2019-05-13T14:01:05.846Z,5.03
2019-05-13T14:03:25.372Z,5.85
2019-05-13T14:05:54.544Z,4.17
2019-05-13T14:06:33.066Z,3.98
2019-05-13T14:06:55.935Z,4.35
2019-05-13T14:06:58.553Z,6.23
2019-05-13T14:08:23.551Z,3.58
2019-05-13T14:10:52.320Z,6.12
2019-05-13T14:13:21.772Z,5.55
2019-05-13T14:15:52.707Z,5.03
2019-05-13T14:18:26.689Z,7.28
2019-05-13T14:20:53.053Z,4.00
2019-05-13T14:23:22.014Z,6.40
2019-05-13T14:25:52.905Z,3.70
2019-05-13T14:28:22.843Z,6.25
2019-05-13T14:30:52.122Z,3.47
2019-05-13T14:33:20.895Z,6.05
2019-05-13T14:35:49.727Z,5.47
2019-05-13T14:38:19.498Z,4.17
2019-05-13T14:40:48.411Z,4.12
2019-05-13T14:43:17.407Z,4.17
2019-05-13T14:45:46.367Z,4.45
2019-05-13T14:48:15.229Z,7.50
2019-05-13T14:50:44.567Z,4.75
2019-05-13T14:53:13.504Z,4.00
2019-05-13T14:55:42.328Z,4.20
2019-05-13T14:58:11.180Z,3.60
2019-05-13T15:00:42.112Z,4.47
2019-05-13T15:03:13.030Z,3.60
2019-05-13T15:05:42.992Z,6.40
2019-05-13T15:08:12.046Z,5.10
2019-05-13T15:10:41.936Z,5.42
2019-05-13T15:13:11.045Z,5.05
2019-05-13T15:15:42.052Z,4.62
2019-05-13T15:18:10.590Z,6.55
2019-05-13T15:20:41.123Z,4.03
2019-05-13T15:23:11.937Z,5.03
2019-05-13T15:25:41.990Z,4.87
2019-05-13T15:28:11.968Z,3.87
2019-05-13T15:30:42.096Z,4.60
2019-05-13T15:33:11.175Z,4.45
2019-05-13T15:35:42.034Z,5.37
2019-05-13T15:38:12.457Z,6.58
2019-05-13T15:40:41.582Z,5.00
2019-05-13T15:43:11.668Z,6.03
2019-05-13T15:45:42.507Z,4.47
2019-05-13T15:48:11.643Z,5.15
2019-05-13T15:50:42.243Z,5.03
2019-05-13T15:53:12.700Z,4.95
2019-05-13T15:55:42.086Z,5.53
2019-05-13T15:58:11.787Z,4.60
2019-05-13T16:00:41.952Z,4.08
2019-05-13T16:03:12.228Z,6.87
2019-05-13T16:05:42.375Z,4.05
2019-05-13T16:08:12.289Z,3.90
2019-05-13T16:10:41.998Z,5.10
2019-05-13T16:13:11.965Z,3.87
2019-05-13T16:15:41.613Z,4.15
2019-05-13T16:18:11.645Z,6.12
2019-05-13T16:20:44.453Z,4.10
2019-05-13T16:23:12.442Z,4.90
2019-05-13T16:25:41.834Z,7.20
2019-05-13T16:28:11.497Z,4.72
2019-05-13T16:30:42.013Z,4.08
2019-05-13T16:33:12.201Z,4.10
2019-05-13T16:35:42.457Z,6.12
2019-05-13T16:38:11.897Z,4.08
2019-05-13T16:40:42.334Z,4.15
2019-05-13T16:43:12.899Z,4.58
2019-05-13T16:45:42.462Z,3.60
2019-05-13T16:48:12.311Z,3.67
2019-05-13T16:50:41.967Z,3.52
2019-05-13T16:53:11.227Z,4.97
2019-05-13T16:55:41.678Z,5.20
2019-05-13T16:58:12.617Z,3.40
2019-05-13T17:00:42.428Z,5.70
2019-05-13T17:03:11.685Z,4.80
2019-05-13T17:05:42.026Z,4.35
2019-05-13T17:08:11.094Z,6.47
2019-05-13T17:10:41.961Z,5.90
2019-05-13T17:13:11.673Z,4.85
2019-05-13T17:15:42.089Z,5.15
2019-05-13T17:18:22.717Z,5.47
2019-05-13T17:20:52.161Z,3.30
2019-05-13T17:23:21.238Z,4.15
2019-05-13T17:25:52.037Z,5.97
2019-05-13T17:28:22.002Z,5.33
2019-05-13T17:30:51.978Z,5.92
2019-05-13T17:33:23.035Z,5.73
2019-05-13T17:35:51.897Z,4.70
2019-05-13T17:38:21.790Z,5.85
2019-05-13T17:40:52.931Z,6.37
2019-05-13T17:43:21.417Z,6.47
2019-05-13T17:45:52.357Z,5.45
2019-05-13T17:48:28.543Z,6.85
2019-05-13T17:50:52.140Z,5.58
2019-05-13T17:53:21.670Z,6.83
2019-05-13T17:55:51.624Z,5.33
2019-05-13T17:58:22.120Z,6.15
2019-05-13T18:00:52.062Z,6.72
2019-05-13T18:03:21.234Z,6.12
2019-05-13T18:05:51.507Z,5.03
2019-05-13T18:08:20.478Z,4.75
2019-05-13T18:10:51.386Z,8.28
2019-05-13T18:13:21.517Z,9.65
2019-05-13T18:15:50.820Z,6.35
2019-05-13T18:18:21.529Z,5.33
2019-05-13T18:20:52.085Z,7.90
2019-05-13T18:23:20.722Z,9.33
2019-05-13T18:25:51.498Z,7.60
2019-05-13T18:28:28.566Z,7.00
2019-05-13T18:30:51.530Z,7.57
2019-05-13T18:33:21.088Z,7.30
2019-05-13T18:35:52.395Z,5.15
2019-05-13T18:38:21.148Z,5.97
2019-05-13T18:40:52.409Z,6.75
2019-05-13T18:43:21.574Z,6.47
2019-05-13T18:45:52.552Z,4.67
2019-05-13T18:48:22.173Z,7.53
2019-05-13T18:50:52.453Z,5.45
2019-05-13T18:53:21.651Z,8.70
2019-05-13T18:55:52.510Z,7.85
2019-05-13T18:58:22.243Z,4.67
2019-05-13T19:00:52.336Z,6.78
2019-05-13T19:03:21.809Z,6.08
2019-05-13T19:05:50.798Z,5.35
2019-05-13T19:08:21.507Z,4.87
2019-05-13T19:10:52.221Z,6.83
2019-05-13T19:13:21.762Z,5.15
2019-05-13T19:15:51.698Z,6.12
2019-05-13T19:18:21.447Z,6.47
2019-05-13T19:20:51.373Z,5.25
2019-05-13T19:23:20.270Z,6.28
2019-05-13T19:25:51.222Z,6.62
2019-05-13T19:28:22.118Z,5.15
2019-05-13T19:30:51.625Z,8.43
2019-05-13T19:33:22.095Z,7.03
2019-05-13T19:35:51.816Z,6.55
2019-05-13T19:38:21.227Z,6.03
2019-05-13T19:40:50.035Z,7.58
2019-05-13T19:43:18.794Z,6.22
2019-05-13T19:45:47.630Z,5.97
2019-05-13T19:48:16.485Z,7.45
2019-05-13T19:50:45.367Z,7.42
2019-05-13T19:53:14.142Z,6.70
2019-05-13T19:55:42.998Z,4.37
2019-05-13T19:58:12.455Z,5.12
2019-05-13T20:00:42.559Z,7.67
2019-05-13T20:03:12.171Z,6.97
2019-05-13T20:05:41.654Z,4.80
2019-05-13T20:08:10.559Z,4.10
2019-05-13T20:10:42.145Z,5.40
2019-05-13T20:13:11.222Z,4.05
2019-05-13T20:15:41.304Z,3.62
2019-05-13T20:18:12.198Z,5.00
2019-05-13T20:20:41.196Z,6.37
2019-05-13T20:23:12.033Z,5.80
2019-05-13T20:25:41.748Z,6.20
2019-05-13T20:28:11.612Z,7.95
2019-05-13T20:30:41.817Z,5.83
2019-05-13T20:33:12.048Z,7.53
2019-05-13T20:35:42.095Z,5.65
2019-05-13T20:38:11.656Z,6.60
2019-05-13T20:40:41.458Z,5.28
2019-05-13T20:43:11.877Z,5.47
2019-05-13T20:45:42.105Z,5.92
2019-05-13T20:48:12.078Z,5.12
2019-05-13T20:50:41.388Z,5.40
2019-05-13T20:53:11.785Z,6.47
2019-05-13T20:55:41.682Z,6.35
2019-05-13T20:58:12.811Z,5.12
2019-05-13T21:00:42.232Z,6.83
2019-05-13T21:03:11.961Z,6.87
2019-05-13T21:05:41.696Z,8.38
2019-05-13T21:08:10.849Z,5.35
2019-05-13T21:10:41.989Z,7.83
2019-05-13T21:13:12.265Z,7.90
2019-05-13T21:15:42.424Z,7.03
2019-05-13T21:18:11.589Z,5.65
2019-05-13T21:20:40.979Z,6.85
2019-05-13T21:23:11.315Z,6.42
2019-05-13T21:25:41.797Z,7.67
2019-05-13T21:28:11.405Z,6.28
2019-05-13T21:30:41.999Z,6.15
2019-05-13T21:33:11.544Z,6.55
2019-05-13T21:35:41.882Z,6.72
2019-05-13T21:38:11.370Z,6.00
2019-05-13T21:40:41.607Z,5.55
2019-05-13T21:43:11.053Z,5.55
2019-05-13T21:45:41.498Z,5.55
2019-05-13T21:48:11.077Z,6.17
2019-05-13T21:50:41.412Z,7.10
2019-05-13T21:53:12.441Z,6.95
2019-05-13T21:55:41.488Z,6.83
2019-05-13T21:58:11.404Z,8.38
2019-05-13T22:00:42.977Z,6.45
2019-05-13T22:03:11.915Z,7.60
2019-05-13T22:05:40.837Z,5.08
2019-05-13T22:08:12.095Z,4.08
2019-05-13T22:10:41.592Z,9.65
2019-05-13T22:13:11.881Z,6.92
2019-05-13T22:15:41.578Z,9.28
2019-05-13T22:18:11.290Z,4.72
2019-05-13T22:20:49.995Z,6.40
2019-05-13T22:23:11.952Z,6.47
2019-05-13T22:25:43.446Z,8.73
2019-05-13T22:28:11.886Z,6.45
2019-05-13T22:30:41.260Z,6.12
2019-05-13T22:33:12.398Z,7.87
2019-05-13T22:35:41.654Z,6.03
2019-05-13T22:38:12.303Z,9.68
2019-05-13T22:40:42.007Z,6.28
2019-05-13T22:43:12.201Z,5.45
2019-05-13T22:45:41.970Z,6.25
2019-05-13T22:48:12.055Z,6.53
2019-05-13T22:50:42.294Z,5.50
2019-05-13T22:53:12.044Z,8.73
2019-05-13T22:55:42.096Z,6.17
2019-05-13T22:58:11.247Z,7.22
2019-05-13T23:00:42.309Z,7.50
2019-05-13T23:03:10.901Z,7.03
2019-05-13T23:05:41.641Z,6.95
2019-05-13T23:08:11.268Z,6.15
2019-05-13T23:10:42.050Z,5.30
2019-05-13T23:13:10.965Z,5.65
2019-05-13T23:15:39.763Z,5.00
2019-05-13T23:18:08.568Z,6.92
2019-05-13T23:20:37.507Z,6.87
2019-05-13T23:23:06.455Z,4.92
2019-05-13T23:25:35.243Z,5.50
2019-05-13T23:28:04.351Z,8.45
2019-05-13T23:30:33.244Z,8.23
2019-05-13T23:33:02.366Z,6.17
2019-05-13T23:35:32.258Z,5.67
2019-05-13T23:38:01.750Z,5.45
2019-05-13T23:40:31.603Z,8.03
2019-05-13T23:43:02.054Z,5.53
2019-05-13T23:45:31.322Z,7.35
2019-05-13T23:48:01.602Z,6.35
2019-05-13T23:50:32.080Z,5.42
2019-05-13T23:53:01.095Z,8.35
2019-05-13T23:55:31.953Z,7.53
2019-05-13T23:58:01.798Z,7.65
